createdAt,value
2023-05-05T00:01:29.729Z,97.59
2023-05-05T00:04:00.807Z,97.64
2023-05-05T00:06:32.117Z,97.71
2023-05-05T00:09:03.148Z,97.03
2023-05-05T00:11:34.102Z,97.23
2023-05-05T00:14:05.329Z,97.40
2023-05-05T00:16:38.803Z,97.76
2023-05-05T00:19:10.387Z,97.55
2023-05-05T00:21:41.449Z,98.28
2023-05-05T00:24:13.404Z,98.24
2023-05-05T00:26:44.409Z,97.72
2023-05-05T00:29:15.137Z,97.86
2023-05-05T00:31:46.293Z,98.04
2023-05-05T00:34:17.771Z,98.35
2023-05-05T00:36:49.672Z,98.05
2023-05-05T00:39:20.867Z,97.56
2023-05-05T00:41:51.807Z,97.99
2023-05-05T00:44:45.149Z,99.34
2023-05-05T00:47:17.413Z,99.34
2023-05-05T00:49:48.130Z,98.79
2023-05-05T00:52:19.620Z,98.63
2023-05-05T00:54:51.051Z,98.93
2023-05-05T00:57:22.529Z,99.43
2023-05-05T00:59:51.623Z,98.94
2023-05-05T01:02:23.019Z,98.88
2023-05-05T01:04:55.782Z,99.39
2023-05-05T01:07:30.184Z,99.78
2023-05-05T01:10:36.748Z,99.86
2023-05-05T01:13:19.687Z,99.96
2023-05-05T01:16:00.706Z,99.95
2023-05-05T01:19:21.146Z,100.00
2023-05-05T01:21:57.732Z,99.56
2023-05-05T01:24:55.216Z,99.55
2023-05-05T01:27:42.304Z,100.00
2023-05-05T01:30:50.995Z,100.00
2023-05-05T01:33:27.448Z,99.98
2023-05-05T01:36:07.179Z,99.92
2023-05-05T01:38:41.348Z,99.89
2023-05-05T01:41:41.470Z,99.99
2023-05-05T01:44:16.309Z,99.86
2023-05-05T01:46:50.573Z,99.73
2023-05-05T01:49:24.098Z,99.87
2023-05-05T01:51:57.759Z,99.99
2023-05-05T01:54:29.990Z,99.97
2023-05-05T01:57:03.668Z,99.74
2023-05-05T01:59:36.045Z,99.94
2023-05-05T02:02:10.462Z,100.00
2023-05-05T02:04:44.531Z,99.92
2023-05-05T02:07:17.956Z,99.80
2023-05-05T02:09:50.269Z,99.71
2023-05-05T02:12:24.091Z,99.83
2023-05-05T02:14:57.593Z,99.85
2023-05-05T02:17:28.242Z,99.39
2023-05-05T02:20:02.322Z,99.77
2023-05-05T02:22:34.446Z,99.84
2023-05-05T02:25:06.092Z,99.83
2023-05-05T02:27:40.306Z,99.97
2023-05-05T02:30:15.636Z,100.00
2023-05-05T02:33:07.554Z,100.00
2023-05-05T02:35:41.678Z,99.95
2023-05-05T02:38:17.996Z,99.88
2023-05-05T02:40:55.578Z,99.67
2023-05-05T02:43:30.060Z,99.67
2023-05-05T02:46:03.503Z,99.96
2023-05-05T02:48:35.519Z,99.86
2023-05-05T02:51:07.800Z,99.75
2023-05-05T02:53:41.551Z,99.95
2023-05-05T02:56:25.636Z,99.98
2023-05-05T02:59:38.428Z,100.00
2023-05-05T03:02:35.102Z,100.00
2023-05-05T03:05:23.773Z,99.96
2023-05-05T03:08:20.967Z,99.97
2023-05-05T03:11:13.658Z,99.95
2023-05-05T03:13:50.687Z,100.00
2023-05-05T03:16:25.423Z,100.00
2023-05-05T03:18:57.086Z,100.00
2023-05-05T03:21:29.433Z,100.00
2023-05-05T03:24:01.266Z,100.00
2023-05-05T03:26:30.444Z,100.00
2023-05-05T03:29:01.384Z,100.00
2023-05-05T03:31:34.514Z,100.00
2023-05-05T03:34:06.390Z,100.00
2023-05-05T03:36:41.654Z,100.00
2023-05-05T03:39:15.220Z,99.99
2023-05-05T03:41:46.645Z,99.98
2023-05-05T03:44:17.794Z,99.95
2023-05-05T03:46:48.808Z,100.00
2023-05-05T03:49:20.571Z,100.00
2023-05-05T03:51:53.758Z,100.00
2023-05-05T03:54:25.091Z,99.91
2023-05-05T03:57:16.844Z,99.81
2023-05-05T03:59:46.400Z,99.99
2023-05-05T04:02:18.324Z,99.94
2023-05-05T04:04:47.479Z,99.90
2023-05-05T04:07:15.972Z,99.61
2023-05-05T04:09:47.285Z,99.82
2023-05-05T04:12:16.833Z,99.99
2023-05-05T04:14:45.364Z,99.64
2023-05-05T04:17:14.328Z,99.24
2023-05-05T04:19:44.915Z,99.05
2023-05-05T04:22:14.576Z,99.01
2023-05-05T04:24:45.254Z,99.02
2023-05-05T04:27:13.664Z,98.74
2023-05-05T04:29:42.391Z,98.72
2023-05-05T04:32:14.817Z,98.89
2023-05-05T04:34:44.677Z,98.69
2023-05-05T04:37:13.816Z,98.66
2023-05-05T04:39:42.417Z,98.79
2023-05-05T04:42:10.927Z,98.94
2023-05-05T04:44:39.592Z,98.68
2023-05-05T04:47:08.991Z,98.40
2023-05-05T04:49:40.441Z,97.55
2023-05-05T04:52:16.189Z,97.05
2023-05-05T04:54:45.982Z,96.86
2023-05-05T04:57:14.475Z,96.57
2023-05-05T04:59:43.882Z,96.41
2023-05-05T05:02:13.201Z,96.29
2023-05-05T05:04:44.968Z,96.03
2023-05-05T05:07:15.863Z,95.74
2023-05-05T05:09:46.724Z,95.56
2023-05-05T05:12:17.564Z,95.60
2023-05-05T05:14:45.848Z,95.38
2023-05-05T05:17:16.135Z,95.05
2023-05-05T05:19:46.191Z,95.17
2023-05-05T05:22:17.722Z,94.76
2023-05-05T05:24:48.797Z,94.71
2023-05-05T05:27:20.154Z,94.39
2023-05-05T05:29:52.029Z,94.37
2023-05-05T05:32:21.810Z,93.86
2023-05-05T05:34:50.593Z,93.53
2023-05-05T05:37:38.929Z,93.61
2023-05-05T05:40:11.117Z,93.47
2023-05-05T05:42:42.928Z,93.34
2023-05-05T05:45:12.779Z,93.12
2023-05-05T05:47:42.712Z,93.11
2023-05-05T05:50:15.146Z,93.20
2023-05-05T05:52:43.827Z,92.96
2023-05-05T05:55:14.958Z,92.75
2023-05-05T05:57:46.865Z,92.58
2023-05-05T06:00:19.812Z,92.35
2023-05-05T06:02:53.100Z,92.44
2023-05-05T06:05:47.102Z,92.57
2023-05-05T06:08:19.313Z,92.28
2023-05-05T06:10:55.365Z,91.78
